Time;durP1;ratioP1;P1;durP2;ratioP2;P2;SDS_P1;SDS_P2;PMS_P1;PMS_P2;Temp;Humidity;BMP_temperature;BMP_pressure;BME280_temperature;BME280_humidity;BME280_pressure;Samples;Min_cycle;Max_cycle;Signal;HPM_P1;HPM_P2
2022/10/17 08:18:31;;;;;;;3.22;1.70;;;18.50;99.90;;;;;;6351307;22;20213;-76
2022/10/17 08:21:00;;;;;;;6.70;2.28;;;18.60;99.90;;;;;;6339945;22;20207;-76
2022/10/17 08:23:27;;;;;;;3.15;1.88;;;18.50;99.90;;;;;;6339568;22;20629;-76
2022/10/17 08:25:54;;;;;;;4.72;2.05;;;18.40;99.90;;;;;;6339225;22;20205;-75
2022/10/17 08:28:21;;;;;;;3.42;1.48;;;18.20;99.90;;;;;;6340016;22;20173;-75
2022/10/17 08:30:47;;;;;;;2.90;1.65;;;18.10;99.90;;;;;;6340055;22;20212;-74
2022/10/17 08:33:14;;;;;;;6.13;2.00;;;18.20;99.90;;;;;;6339522;22;20566;-76
2022/10/17 08:35:42;;;;;;;3.72;2.28;;;18.10;99.90;;;;;;6339404;22;20526;-75
2022/10/17 08:38:09;;;;;;;3.72;2.00;;;18.10;99.90;;;;;;6351310;22;20769;-75
2022/10/17 08:40:41;;;;;;;4.60;2.50;;;18.10;99.90;;;;;;6346153;22;20288;-75
2022/10/17 08:43:22;;;;;;;4.70;2.42;;;18.10;99.90;;;;;;6339831;22;20177;-75
2022/10/17 08:45:54;;;;;;;4.32;1.90;;;18.00;99.90;;;;;;6338910;22;20203;-75
2022/10/17 08:48:25;;;;;;;2.78;1.88;;;18.10;99.90;;;;;;6339704;22;20260;-77
2022/10/17 08:50:56;;;;;;;6.72;2.17;;;18.20;99.90;;;;;;6339122;22;20173;-75
2022/10/17 08:53:28;;;;;;;3.42;2.20;;;18.20;99.90;;;;;;6338956;22;20189;-76
2022/10/17 08:55:56;;;;;;;3.78;1.80;;;18.20;99.90;;;;;;6339083;22;20197;-76
2022/10/17 08:58:24;;;;;;;2.80;1.80;;;18.10;99.90;;;;;;6339838;22;20173;-76
2022/10/17 09:01:01;;;;;;;4.60;1.92;;;18.00;99.90;;;;;;6339759;22;20258;-76
2022/10/17 09:03:42;;;;;;;2.75;1.90;;;18.10;99.90;;;;;;6339567;22;20173;-75
2022/10/17 09:06:19;;;;;;;2.78;1.63;;;18.10;99.90;;;;;;6339224;22;20250;-76
2022/10/17 09:08:55;;;;;;;3.40;1.90;;;18.20;99.90;;;;;;6339126;22;20177;-76
2022/10/17 09:11:47;;;;;;;2.83;1.75;;;18.10;99.90;;;;;;6339155;22;20179;-72
2022/10/17 09:14:30;;;;;;;5.85;1.75;;;18.00;99.90;;;;;;6338958;22;20193;-76
2022/10/17 09:17:12;;;;;;;3.47;2.05;;;18.00;99.90;;;;;;6339799;22;20538;-74
2022/10/17 09:19:45;;;;;;;3.35;2.05;;;18.00;99.90;;;;;;6339341;22;20174;-76
2022/10/17 09:22:18;;;;;;;3.65;1.73;;;18.10;99.90;;;;;;6339538;22;20180;-75
2022/10/17 09:24:51;;;;;;;2.40;1.88;;;18.10;99.90;;;;;;6334767;22;20215;-76
2022/10/17 09:27:24;;;;;;;2.70;2.10;;;18.20;99.90;;;;;;6336683;22;20177;-80
2022/10/17 09:30:00;;;;;;;2.42;1.70;;;18.20;99.90;;;;;;6337508;22;20185;-76
2022/10/17 09:32:28;;;;;;;2.58;1.88;;;18.20;99.90;;;;;;6337145;22;20177;-75
2022/10/17 09:34:55;;;;;;;3.25;2.15;;;18.10;99.90;;;;;;6337769;22;20228;-72
2022/10/17 09:37:30;;;;;;;3.42;2.08;;;18.10;99.90;;;;;;6337560;22;20552;-73
2022/10/17 09:39:58;;;;;;;3.13;1.70;;;18.20;99.90;;;;;;6336461;22;20287;-73
2022/10/17 09:42:26;;;;;;;3.08;1.90;;;18.30;99.90;;;;;;6338051;22;20252;-75
2022/10/17 09:45:03;;;;;;;5.60;2.22;;;18.40;99.90;;;;;;6337501;22;20669;-78
2022/10/17 09:47:34;;;;;;;4.95;2.60;;;18.50;99.90;;;;;;6336941;22;20505;-76
2022/10/17 09:50:02;;;;;;;3.33;2.20;;;18.60;99.90;;;;;;6337640;22;20209;-75
2022/10/17 09:52:34;;;;;;;11.60;3.25;;;18.70;99.90;;;;;;6337591;22;20219;-75
2022/10/17 09:55:05;;;;;;;9.57;2.83;;;18.80;99.90;;;;;;6336428;22;20200;-77
2022/10/17 09:57:53;;;;;;;11.98;3.17;;;18.90;99.90;;;;;;6337799;22;20179;-77
2022/10/17 10:00:22;;;;;;;6.70;2.83;;;19.00;99.90;;;;;;6337280;22;20276;-74
2022/10/17 10:02:49;;;;;;;5.47;2.75;;;19.10;99.90;;;;;;6336987;22;20177;-75
2022/10/17 10:05:18;;;;;;;3.97;2.00;;;19.10;99.90;;;;;;6336919;22;20197;-72
2022/10/17 10:08:04;;;;;;;4.60;2.28;;;19.20;99.90;;;;;;6336735;22;20185;-71
2022/10/17 10:10:32;;;;;;;3.88;1.88;;;19.20;99.90;;;;;;6338002;22;20185;-74
2022/10/17 10:13:15;;;;;;;5.38;2.30;;;19.20;99.90;;;;;;6337816;22;20514;-72
2022/10/17 10:15:44;;;;;;;5.43;2.03;;;19.30;99.90;;;;;;6336379;22;20197;-74
2022/10/17 10:18:29;;;;;;;6.30;2.50;;;19.30;99.90;;;;;;6336910;22;20189;-72
2022/10/17 10:21:09;;;;;;;4.47;2.55;;;19.30;99.90;;;;;;6337518;22;20280;-75
2022/10/17 10:23:39;;;;;;;6.75;2.80;;;19.30;99.90;;;;;;6337106;22;20180;-73
2022/10/17 10:26:21;;;;;;;5.82;2.38;;;19.30;99.90;;;;;;6336301;22;20204;-71
2022/10/17 10:28:57;;;;;;;3.35;2.40;;;19.40;99.90;;;;;;6336820;22;20515;-70
2022/10/17 10:31:30;;;;;;;3.20;2.25;;;19.40;99.90;;;;;;6337203;22;20173;-73
2022/10/17 10:34:00;;;;;;;6.03;2.60;;;19.50;99.90;;;;;;6336919;22;20173;-71
2022/10/17 10:36:53;;;;;;;6.95;2.80;;;19.60;99.90;;;;;;6337030;22;20178;-70
2022/10/17 10:39:37;;;;;;;5.13;2.47;;;19.60;99.90;;;;;;6336621;22;20184;-71
2022/10/17 10:42:07;;;;;;;2.42;1.98;;;19.60;99.90;;;;;;6336661;22;20209;-70
2022/10/17 10:44:41;;;;;;;6.18;2.45;;;19.70;99.90;;;;;;6336861;22;20193;-70
2022/10/17 10:47:15;;;;;;;4.55;2.83;;;19.80;99.90;;;;;;6335430;22;20177;-70
2022/10/17 10:49:42;;;;;;;2.45;1.90;;;19.70;99.90;;;;;;6336197;22;20199;-70
2022/10/17 10:52:16;;;;;;;5.05;2.40;;;19.40;99.90;;;;;;6336635;22;20181;-71
2022/10/17 10:54:51;;;;;;;4.57;2.25;;;19.40;99.90;;;;;;6336920;22;20252;-70
2022/10/17 10:57:21;;;;;;;4.00;2.17;;;19.40;99.90;;;;;;6337528;22;20251;-75
2022/10/17 10:59:57;;;;;;;2.88;2.28;;;19.20;99.90;;;;;;6336631;22;20173;-73
2022/10/17 11:02:31;;;;;;;3.05;2.30;;;19.10;99.90;;;;;;6337714;22;20208;-73
2022/10/17 11:05:01;;;;;;;3.33;1.88;;;19.20;99.90;;;;;;6337132;22;20231;-72
2022/10/17 11:07:32;;;;;;;4.47;2.15;;;19.30;99.90;;;;;;6337262;22;20236;-72
2022/10/17 11:10:08;;;;;;;4.13;1.95;;;19.30;99.90;;;;;;6338099;22;20195;-74
2022/10/17 11:12:39;;;;;;;2.20;1.90;;;19.20;99.90;;;;;;6337463;22;20194;-74
2022/10/17 11:15:16;;;;;;;5.07;1.85;;;19.20;99.90;;;;;;6336337;22;20272;-76
2022/10/17 11:17:49;;;;;;;2.47;1.77;;;19.20;99.90;;;;;;6336368;22;20268;-77
2022/10/17 11:20:21;;;;;;;3.67;1.90;;;19.10;99.90;;;;;;6336542;22;20264;-75
2022/10/17 11:22:49;;;;;;;3.65;1.90;;;18.90;99.90;;;;;;6336310;22;20179;-74
2022/10/17 11:25:33;;;;;;;2.53;1.85;;;18.80;99.90;;;;;;6337037;22;20199;-76
2022/10/17 11:28:01;;;;;;;3.95;1.92;;;18.80;99.90;;;;;;6336784;22;20183;-77
2022/10/17 11:30:36;;;;;;;3.20;2.30;;;18.70;99.90;;;;;;6336159;22;20256;-78
2022/10/17 11:33:05;;;;;;;4.70;2.40;;;18.70;99.90;;;;;;6336532;22;20176;-78
2022/10/17 11:35:36;;;;;;;5.72;1.70;;;18.90;99.90;;;;;;6337280;22;20203;-77
2022/10/17 11:38:10;;;;;;;2.72;1.80;;;19.00;99.90;;;;;;6339031;22;20177;-79
2022/10/17 11:40:42;;;;;;;3.78;1.75;;;19.00;99.90;;;;;;6338740;22;20200;-74
2022/10/17 11:43:13;;;;;;;6.70;2.13;;;19.20;99.90;;;;;;6339397;22;20205;-73
2022/10/17 11:45:43;;;;;;;4.60;1.60;;;19.10;99.90;;;;;;6338363;22;20201;-74
2022/10/17 11:48:15;;;;;;;2.72;2.03;;;19.00;99.90;;;;;;6339476;22;20173;-74
2022/10/17 11:50:45;;;;;;;3.50;2.03;;;19.10;99.90;;;;;;6339885;22;20259;-75
2022/10/17 11:53:16;;;;;;;3.40;2.00;;;19.10;99.90;;;;;;6338031;22;20181;-78
2022/10/17 11:55:45;;;;;;;3.28;2.08;;;19.20;99.90;;;;;;6339520;22;20696;-79
2022/10/17 11:58:29;;;;;;;2.83;1.98;;;19.50;99.90;;;;;;6340383;22;20627;-77
2022/10/17 12:01:07;;;;;;;3.13;2.10;;;19.50;99.90;;;;;;6339442;22;20254;-76
2022/10/17 12:03:44;;;;;;;5.07;2.63;;;19.50;99.90;;;;;;6338464;22;20698;-75
2022/10/17 12:06:17;;;;;;;3.40;2.50;;;19.50;99.90;;;;;;6340909;22;20193;-80
2022/10/17 12:08:51;;;;;;;2.47;1.85;;;19.60;99.90;;;;;;6339470;22;20177;-77
2022/10/17 12:11:33;;;;;;;3.90;2.30;;;19.70;99.90;;;;;;6338103;22;20181;-77
2022/10/17 12:14:00;;;;;;;4.93;2.15;;;19.70;99.90;;;;;;6337588;22;20234;-77
2022/10/17 12:16:48;;;;;;;4.60;2.33;;;19.70;99.90;;;;;;6338640;22;20173;-74
2022/10/17 12:19:32;;;;;;;3.33;2.10;;;19.70;99.90;;;;;;6337851;22;20231;-75
2022/10/17 12:22:18;;;;;;;5.85;2.20;;;19.60;99.90;;;;;;6334370;22;20201;-76
2022/10/17 12:24:54;;;;;;;4.53;2.47;;;19.70;99.90;;;;;;6337982;22;20231;-75
2022/10/17 12:27:37;;;;;;;6.00;2.42;;;19.80;99.90;;;;;;6338399;22;20478;-74
2022/10/17 12:30:15;;;;;;;6.47;2.92;;;19.70;99.90;;;;;;6337434;22;20641;-77
2022/10/17 12:33:05;;;;;;;5.00;2.25;;;19.80;99.90;;;;;;6338779;22;20177;-76
2022/10/17 12:35:34;;;;;;;4.35;1.98;;;19.70;99.90;;;;;;6337818;22;20193;-79
2022/10/17 12:38:23;;;;;;;3.67;2.30;;;19.80;99.90;;;;;;6336696;22;20212;-79
2022/10/17 12:40:57;;;;;;;6.78;2.40;;;19.70;99.90;;;;;;6337855;22;20254;-77
2022/10/17 12:43:47;;;;;;;5.10;2.55;;;19.60;99.90;;;;;;6337722;22;20199;-74
2022/10/17 12:46:46;;;;;;;3.58;2.20;;;19.50;99.90;;;;;;6338285;22;20276;-76
2022/10/17 12:49:45;;;;;;;6.60;2.30;;;19.50;99.90;;;;;;6337999;22;20177;-72
2022/10/17 12:52:24;;;;;;;5.57;2.90;;;19.70;99.90;;;;;;6337767;22;20261;-79
2022/10/17 12:54:58;;;;;;;3.80;2.17;;;19.80;99.90;;;;;;6337719;22;20697;-76
2022/10/17 12:57:31;;;;;;;2.90;2.28;;;19.70;99.90;;;;;;6338146;22;20177;-73
2022/10/17 13:00:03;;;;;;;2.53;2.30;;;19.70;99.90;;;;;;6337781;22;20264;-81
2022/10/17 13:02:32;;;;;;;3.72;2.70;;;19.70;99.90;;;;;;6337465;22;20511;-73
2022/10/17 13:05:06;;;;;;;6.20;3.33;;;19.70;99.90;;;;;;6337680;22;20280;-76
2022/10/17 13:07:36;;;;;;;4.60;2.70;;;19.60;99.90;;;;;;6337197;22;20676;-74
2022/10/17 13:10:04;;;;;;;6.57;2.92;;;19.60;99.90;;;;;;6338212;22;20260;-71
2022/10/17 13:12:35;;;;;;;4.40;2.40;;;19.70;99.90;;;;;;6337768;22;20186;-76
2022/10/17 13:15:07;;;;;;;3.60;2.55;;;19.70;99.90;;;;;;6336910;22;20386;-73
2022/10/17 13:17:34;;;;;;;4.05;2.60;;;19.70;99.90;;;;;;6337746;22;20196;-74
2022/10/17 13:20:02;;;;;;;6.55;2.75;;;19.80;99.90;;;;;;6337809;22;20174;-72
2022/10/17 13:22:30;;;;;;;5.45;2.80;;;19.90;99.90;;;;;;6337182;22;20263;-71
2022/10/17 13:25:08;;;;;;;4.30;2.63;;;20.10;99.90;;;;;;6339119;22;20224;-70
2022/10/17 13:27:36;;;;;;;4.55;2.60;;;20.00;99.90;;;;;;6338228;22;20173;-73
2022/10/17 13:30:23;;;;;;;3.47;2.63;;;20.20;99.90;;;;;;6339093;22;20268;-70
2022/10/17 13:32:50;;;;;;;3.22;2.40;;;20.40;99.90;;;;;;6339140;22;20191;-70
2022/10/17 13:35:24;;;;;;;4.25;2.47;;;20.40;99.90;;;;;;6339403;22;20200;-70
2022/10/17 13:37:51;;;;;;;3.72;2.47;;;20.40;99.90;;;;;;6338819;22;20629;-73
2022/10/17 13:40:21;;;;;;;4.22;2.42;;;20.40;99.90;;;;;;6338892;22;20183;-73
2022/10/17 13:42:48;;;;;;;4.72;2.22;;;20.40;99.90;;;;;;6339150;22;20205;-72
2022/10/17 13:45:24;;;;;;;2.70;2.22;;;20.30;99.90;;;;;;6339033;22;20204;-72
2022/10/17 13:47:51;;;;;;;2.83;2.15;;;20.10;99.90;;;;;;6339582;22;20179;-72
2022/10/17 13:50:24;;;;;;;3.30;2.50;;;20.20;99.90;;;;;;6339324;22;20498;-70
2022/10/17 13:53:19;;;;;;;4.20;2.05;;;20.20;99.90;;;;;;6339539;22;20256;-70
2022/10/17 13:55:58;;;;;;;6.65;3.05;;;20.20;99.90;;;;;;6338979;22;20699;-72
2022/10/17 13:58:27;;;;;;;3.78;2.20;;;20.20;99.90;;;;;;6339422;22;20173;-70
2022/10/17 14:00:55;;;;;;;3.10;1.80;;;19.90;99.90;;;;;;6339071;22;20286;-70
2022/10/17 14:03:23;;;;;;;2.80;1.73;;;19.90;99.90;;;;;;6339407;22;20181;-71
2022/10/17 14:06:23;;;;;;;4.25;2.00;;;20.00;99.90;;;;;;6339453;22;20208;-70
2022/10/17 14:08:54;;;;;;;2.30;1.80;;;20.00;99.90;;;;;;6183482;23;20184;-70
2022/10/17 14:11:27;;;;;;;2.40;1.58;;;20.10;99.90;;;;;;6183502;23;20177;-70
2022/10/17 14:13:56;;;;;;;4.85;2.17;;;20.00;99.90;;;;;;6264063;22;20205;-70
2022/10/17 14:16:26;;;;;;;3.30;1.60;;;20.10;99.90;;;;;;6339348;22;20181;-71
2022/10/17 14:18:53;;;;;;;4.55;1.70;;;20.00;99.90;;;;;;6339504;22;20185;-70
2022/10/17 14:21:22;;;;;;;3.33;1.52;;;20.00;99.90;;;;;;6338787;22;20514;-70
2022/10/17 14:23:50;;;;;;;3.55;1.65;;;20.10;99.90;;;;;;6339239;22;20180;-70
2022/10/17 14:26:20;;;;;;;3.17;1.40;;;20.20;99.90;;;;;;6339219;22;20200;-71
2022/10/17 14:28:49;;;;;;;3.70;1.60;;;20.20;99.90;;;;;;6339405;22;20184;-70
2022/10/17 14:31:25;;;;;;;3.85;1.60;;;20.20;99.90;;;;;;6339100;22;20652;-70
2022/10/17 14:33:53;;;;;;;2.72;1.40;;;20.10;99.90;;;;;;6339189;22;20173;-71
2022/10/17 14:36:29;;;;;;;2.05;1.35;;;20.10;99.90;;;;;;6339390;22;20184;-70
2022/10/17 14:38:56;;;;;;;3.03;1.60;;;20.10;99.90;;;;;;6338709;22;20483;-73
2022/10/17 14:41:25;;;;;;;2.80;2.05;;;20.30;99.90;;;;;;6338765;22;20610;-71
2022/10/17 14:43:57;;;;;;;1.50;1.30;;;20.40;99.90;;;;;;6339024;22;20174;-74
2022/10/17 14:46:26;;;;;;;2.75;1.30;;;20.30;99.90;;;;;;6338964;22;20173;-72
2022/10/17 14:49:01;;;;;;;4.88;1.60;;;20.40;99.90;;;;;;6338389;22;20177;-69
2022/10/17 14:51:27;;;;;;;1.95;1.40;;;20.40;99.90;;;;;;6339268;22;20172;-70
2022/10/17 14:54:15;;;;;;;1.88;1.30;;;20.40;99.90;;;;;;6338893;22;20184;-70
2022/10/17 14:56:48;;;;;;;1.67;1.27;;;20.50;99.90;;;;;;6339092;22;20179;-70
2022/10/17 14:59:17;;;;;;;2.13;1.60;;;20.30;99.90;;;;;;6338976;22;20179;-70
2022/10/17 15:01:45;;;;;;;5.47;1.17;;;20.30;99.90;;;;;;6338585;22;20208;-69
2022/10/17 15:04:12;;;;;;;3.75;1.83;;;20.20;99.90;;;;;;6338954;22;20173;-73
2022/10/17 15:06:39;;;;;;;1.73;1.00;;;20.10;99.90;;;;;;6338904;22;20264;-73
2022/10/17 15:09:06;;;;;;;2.03;1.23;;;20.10;99.90;;;;;;6338869;22;20261;-71
2022/10/17 15:11:33;;;;;;;4.22;1.50;;;20.00;99.90;;;;;;6338475;22;20260;-73
2022/10/17 15:13:59;;;;;;;5.00;1.42;;;20.00;99.90;;;;;;6338862;22;20275;-73
2022/10/17 15:16:30;;;;;;;1.63;1.10;;;20.00;99.90;;;;;;6338994;22;20174;-73
2022/10/17 15:18:59;;;;;;;1.60;1.13;;;19.90;99.90;;;;;;6338432;22;20204;-72
2022/10/17 15:21:28;;;;;;;2.17;1.50;;;19.80;99.90;;;;;;6338921;22;20209;-73
2022/10/17 15:23:55;;;;;;;1.58;1.33;;;19.60;99.90;;;;;;6338795;22;20173;-72
2022/10/17 15:26:24;;;;;;;1.38;1.20;;;19.50;99.90;;;;;;6338884;22;20179;-72
2022/10/17 15:28:51;;;;;;;4.72;1.27;;;19.50;99.90;;;;;;6338885;22;20174;-73
2022/10/17 15:31:19;;;;;;;3.15;1.40;;;19.50;99.90;;;;;;6338136;22;20498;-73
2022/10/17 15:33:46;;;;;;;2.17;1.30;;;19.50;99.90;;;;;;6338724;22;20177;-74
2022/10/17 15:36:23;;;;;;;1.88;1.40;;;19.50;99.90;;;;;;6338819;22;20293;-73
2022/10/17 15:38:54;;;;;;;1.98;1.20;;;19.30;99.90;;;;;;6333422;22;20647;-76
2022/10/17 15:41:22;;;;;;;3.35;1.55;;;19.30;99.90;;;;;;6338490;22;20205;-76
2022/10/17 15:43:49;;;;;;;2.60;1.50;;;19.30;99.90;;;;;;6338176;22;20201;-70
2022/10/17 15:46:18;;;;;;;2.28;1.60;;;19.20;99.90;;;;;;6338465;22;20279;-74
2022/10/17 15:48:45;;;;;;;2.95;1.40;;;19.30;99.90;;;;;;6338098;22;20256;-75
2022/10/17 15:51:13;;;;;;;3.38;2.42;;;19.20;99.90;;;;;;6335241;22;20180;-70
2022/10/17 15:53:41;;;;;;;3.78;1.77;;;19.20;99.90;;;;;;6335053;22;20688;-71
2022/10/17 15:56:14;;;;;;;2.67;1.60;;;19.20;99.90;;;;;;6336711;22;20760;-77
2022/10/17 15:58:41;;;;;;;3.65;1.60;;;19.20;99.90;;;;;;6336231;22;20195;-76
2022/10/17 16:01:19;;;;;;;2.45;1.50;;;19.10;99.90;;;;;;6336169;22;20173;-77
2022/10/17 16:03:48;;;;;;;1.95;1.33;;;19.00;99.90;;;;;;6336293;22;20205;-75
2022/10/17 16:06:16;;;;;;;2.75;1.52;;;18.90;99.90;;;;;;6336412;22;20197;-72
2022/10/17 16:08:44;;;;;;;1.85;1.48;;;18.80;99.90;;;;;;6336000;22;20705;-75
2022/10/17 16:11:17;;;;;;;2.13;1.33;;;18.80;99.90;;;;;;6337301;22;20179;-79
2022/10/17 16:13:49;;;;;;;3.60;1.50;;;18.70;99.90;;;;;;6336074;22;20185;-76
2022/10/17 16:16:16;;;;;;;4.72;2.20;;;18.70;99.90;;;;;;6336436;22;20197;-75
2022/10/17 16:18:43;;;;;;;3.05;1.40;;;18.70;99.90;;;;;;6336243;22;20275;-74
2022/10/17 16:21:11;;;;;;;1.52;1.17;;;18.60;99.90;;;;;;6335859;22;20180;-79
2022/10/17 16:23:38;;;;;;;2.30;1.60;;;18.60;99.90;;;;;;6337627;22;20262;-73
2022/10/17 16:26:06;;;;;;;3.67;1.42;;;18.50;99.90;;;;;;6338691;22;20571;-73
2022/10/17 16:28:34;;;;;;;7.13;2.03;;;18.50;99.90;;;;;;6337942;22;20181;-75
2022/10/17 16:31:00;;;;;;;1.88;1.20;;;18.50;99.90;;;;;;6339068;22;20253;-74
2022/10/17 16:33:27;;;;;;;2.40;1.33;;;18.50;99.90;;;;;;6338188;22;20177;-73
2022/10/17 16:35:54;;;;;;;3.10;1.20;;;18.40;99.90;;;;;;6337124;22;20203;-75
2022/10/17 16:38:21;;;;;;;3.83;1.63;;;18.30;99.90;;;;;;6338146;22;20195;-72
2022/10/17 16:40:48;;;;;;;5.35;1.67;;;18.20;99.90;;;;;;6338085;22;20188;-71
2022/10/17 16:43:16;;;;;;;2.63;1.70;;;18.10;99.90;;;;;;6337396;22;20304;-73
2022/10/17 16:45:43;;;;;;;2.05;1.30;;;18.10;99.90;;;;;;6338039;22;20197;-70
2022/10/17 16:48:11;;;;;;;2.08;1.60;;;18.20;99.90;;;;;;6338159;22;20260;-70
2022/10/17 16:50:39;;;;;;;3.53;1.20;;;18.20;99.90;;;;;;6337271;22;21129;-71
2022/10/17 16:53:06;;;;;;;2.10;1.67;;;18.10;99.90;;;;;;6337793;22;20183;-70
2022/10/17 16:55:33;;;;;;;2.67;1.60;;;18.10;99.90;;;;;;6338393;22;20197;-71
2022/10/17 16:58:00;;;;;;;1.58;1.45;;;18.00;99.90;;;;;;6309615;22;20169;-71
2022/10/17 17:00:28;;;;;;;4.88;1.63;;;18.00;99.90;;;;;;6338318;22;20177;-72
2022/10/17 17:02:55;;;;;;;1.98;1.45;;;17.90;99.90;;;;;;6337576;22;20208;-69
2022/10/17 17:05:22;;;;;;;3.20;1.55;;;17.90;99.90;;;;;;6336751;22;20852;-72
2022/10/17 17:07:49;;;;;;;4.38;3.20;;;17.80;99.90;;;;;;6337784;22;20264;-71
2022/10/17 17:10:15;;;;;;;3.97;2.22;;;17.70;99.90;;;;;;6337972;22;20252;-77
2022/10/17 17:12:42;;;;;;;3.85;2.00;;;17.70;99.90;;;;;;6337299;22;20184;-68
2022/10/17 17:15:09;;;;;;;4.70;1.90;;;17.70;99.90;;;;;;6337701;22;20199;-70
2022/10/17 17:17:37;;;;;;;3.95;2.50;;;17.70;99.90;;;;;;6337765;22;20181;-72
2022/10/17 17:20:05;;;;;;;3.47;2.58;;;17.70;99.90;;;;;;6337268;22;20265;-68
2022/10/17 17:22:32;;;;;;;3.53;2.00;;;17.60;99.90;;;;;;6337717;22;20204;-69
2022/10/17 17:24:58;;;;;;;5.95;2.83;;;17.60;99.90;;;;;;6337531;22;20225;-69
2022/10/17 17:27:27;;;;;;;4.13;2.47;;;17.60;99.90;;;;;;6336969;22;20508;-71
2022/10/17 17:29:54;;;;;;;2.42;1.75;;;17.60;99.90;;;;;;6337621;22;20180;-72
2022/10/17 17:32:21;;;;;;;2.35;2.00;;;17.50;99.90;;;;;;6339366;22;20209;-73
2022/10/17 17:34:49;;;;;;;3.85;1.83;;;17.40;99.90;;;;;;6339270;22;20204;-72
2022/10/17 17:37:16;;;;;;;4.43;1.87;;;17.30;99.90;;;;;;6339260;22;20628;-72
2022/10/17 17:39:43;;;;;;;3.30;2.00;;;17.30;99.90;;;;;;6339619;22;20261;-72
2022/10/17 17:42:10;;;;;;;2.95;1.80;;;17.30;99.90;;;;;;6338836;22;20260;-72
2022/10/17 17:44:36;;;;;;;1.80;1.40;;;17.30;99.90;;;;;;6339177;22;20474;-72
2022/10/17 17:47:03;;;;;;;2.67;1.90;;;17.30;99.90;;;;;;6339609;22;20173;-72
2022/10/17 17:49:30;;;;;;;3.60;1.70;;;17.30;99.90;;;;;;6339595;22;20276;-72
2022/10/17 17:51:58;;;;;;;1.77;1.47;;;17.30;99.90;;;;;;6339318;22;20260;-72
2022/10/17 17:54:25;;;;;;;1.67;1.10;;;17.20;99.90;;;;;;6338993;22;20677;-72
2022/10/17 17:56:52;;;;;;;2.85;1.48;;;17.20;99.90;;;;;;6338892;22;20486;-72
2022/10/17 17:59:19;;;;;;;1.77;1.50;;;17.20;99.90;;;;;;6339379;22;20188;-72
2022/10/17 18:01:45;;;;;;;2.35;1.13;;;17.30;99.90;;;;;;6339526;22;20498;-72
2022/10/17 18:04:12;;;;;;;1.70;1.20;;;17.30;99.90;;;;;;6338946;22;20673;-72
2022/10/17 18:06:39;;;;;;;2.97;1.40;;;17.20;99.90;;;;;;6339294;22;20173;-72
2022/10/17 18:09:08;;;;;;;2.90;1.43;;;17.20;99.90;;;;;;6338446;22;20256;-72
2022/10/17 18:11:36;;;;;;;2.23;1.67;;;17.20;99.90;;;;;;6339229;22;20184;-72
2022/10/17 18:14:05;;;;;;;4.07;2.00;;;17.20;99.90;;;;;;6339114;22;20180;-72
2022/10/17 18:16:33;;;;;;;3.30;1.48;;;17.20;99.90;;;;;;6338801;22;20179;-73
2022/10/17 18:19:04;;;;;;;2.50;1.10;;;17.20;99.90;;;;;;6338967;22;20708;-72
2022/10/17 18:21:31;;;;;;;2.47;1.60;;;17.10;99.90;;;;;;6335551;22;20181;-71
2022/10/17 18:23:59;;;;;;;4.80;1.87;;;17.20;99.90;;;;;;6338447;22;20211;-73
2022/10/17 18:26:27;;;;;;;3.30;1.60;;;17.10;99.90;;;;;;6338902;22;20173;-71
2022/10/17 18:28:54;;;;;;;4.63;1.88;;;17.10;99.90;;;;;;6339531;22;20174;-71
2022/10/17 18:31:27;;;;;;;3.17;1.60;;;17.10;99.90;;;;;;6339479;22;20195;-72
2022/10/17 18:33:55;;;;;;;3.60;1.53;;;17.10;99.90;;;;;;6338409;22;20209;-72
2022/10/17 18:36:24;;;;;;;3.50;1.77;;;17.20;99.90;;;;;;6339259;22;20173;-71
2022/10/17 18:38:51;;;;;;;2.83;1.57;;;17.20;99.90;;;;;;6339016;22;20177;-72
2022/10/17 18:41:20;;;;;;;2.33;1.53;;;17.10;99.90;;;;;;6338860;22;20177;-72
2022/10/17 18:43:49;;;;;;;5.37;1.50;;;17.00;99.90;;;;;;6339048;22;20228;-72
2022/10/17 18:46:18;;;;;;;4.30;1.30;;;17.10;99.90;;;;;;6338689;22;20193;-71
2022/10/17 18:48:46;;;;;;;3.13;1.53;;;17.10;99.90;;;;;;6338790;22;20593;-71
2022/10/17 18:51:14;;;;;;;2.27;1.40;;;17.10;99.90;;;;;;6339218;22;20199;-71
2022/10/17 18:53:41;;;;;;;5.10;2.25;;;17.10;99.90;;;;;;6339227;22;20179;-71
2022/10/17 18:56:08;;;;;;;2.53;1.43;;;17.10;99.90;;;;;;6339095;22;20216;-71
2022/10/17 18:58:36;;;;;;;4.93;2.50;;;17.10;99.90;;;;;;6339067;22;20173;-71
2022/10/17 19:01:05;;;;;;;5.10;2.67;;;17.20;99.90;;;;;;6338746;22;20183;-72
2022/10/17 19:03:32;;;;;;;3.47;2.27;;;17.20;99.90;;;;;;6338820;22;20213;-72
2022/10/17 19:06:01;;;;;;;3.20;1.70;;;17.20;99.90;;;;;;6339035;22;20193;-72
2022/10/17 19:08:29;;;;;;;3.57;2.43;;;17.10;99.90;;;;;;6338983;22;20246;-72
2022/10/17 19:10:55;;;;;;;2.42;1.60;;;17.10;99.90;;;;;;6339002;22;20180;-72
2022/10/17 19:13:22;;;;;;;7.07;3.83;;;17.20;99.90;;;;;;6338714;22;20183;-72
2022/10/17 19:15:49;;;;;;;4.75;2.00;;;17.20;99.90;;;;;;6338366;22;20749;-71
2022/10/17 19:18:17;;;;;;;3.22;1.70;;;17.10;99.90;;;;;;6338818;22;20621;-71
2022/10/17 19:20:44;;;;;;;2.60;1.93;;;17.10;99.90;;;;;;6338992;22;20173;-71
2022/10/17 19:23:11;;;;;;;5.23;2.23;;;17.10;99.90;;;;;;6339136;22;20288;-70
2022/10/17 19:25:38;;;;;;;4.15;2.53;;;17.10;99.90;;;;;;6339014;22;20193;-71
2022/10/17 19:28:05;;;;;;;3.33;1.63;;;17.00;99.90;;;;;;6339194;22;20290;-71
2022/10/17 19:30:32;;;;;;;2.80;1.60;;;17.00;99.90;;;;;;6338744;22;20637;-72
2022/10/17 19:32:58;;;;;;;3.53;2.13;;;17.00;99.90;;;;;;6338824;22;20288;-71
2022/10/17 19:35:26;;;;;;;3.83;2.22;;;17.00;99.90;;;;;;6338637;22;20280;-72
2022/10/17 19:37:53;;;;;;;4.63;2.50;;;17.10;99.90;;;;;;6339083;22;20252;-72
2022/10/17 19:40:20;;;;;;;9.80;4.03;;;17.10;99.90;;;;;;6339081;22;20264;-71
2022/10/17 19:42:47;;;;;;;5.75;2.00;;;17.10;99.90;;;;;;6338717;22;20510;-71
2022/10/17 19:45:14;;;;;;;3.00;1.80;;;17.10;99.90;;;;;;6338852;22;20219;-72
2022/10/17 19:47:40;;;;;;;3.85;1.90;;;17.10;99.90;;;;;;6338852;22;20173;-72
2022/10/17 19:50:08;;;;;;;1.55;1.20;;;17.10;99.90;;;;;;6338089;22;20187;-71
2022/10/17 19:52:36;;;;;;;4.05;1.42;;;17.10;99.90;;;;;;6338270;22;20177;-71
2022/10/17 19:55:03;;;;;;;1.92;1.33;;;17.10;99.90;;;;;;6338344;22;20284;-71
2022/10/17 19:57:29;;;;;;;5.78;2.00;;;17.10;99.90;;;;;;6339257;22;20173;-71
2022/10/17 19:59:56;;;;;;;2.35;1.42;;;17.20;99.90;;;;;;6340816;22;20173;-72
2022/10/17 20:02:23;;;;;;;4.25;2.20;;;17.20;99.90;;;;;;6340143;22;20570;-71
2022/10/17 20:04:50;;;;;;;4.18;1.70;;;17.20;99.90;;;;;;6340179;22;20209;-71
2022/10/17 20:07:17;;;;;;;2.38;1.38;;;17.20;99.90;;;;;;6340530;22;20173;-72
2022/10/17 20:09:45;;;;;;;3.20;1.17;;;17.10;99.90;;;;;;6340450;22;20177;-72
2022/10/17 20:12:12;;;;;;;2.20;1.10;;;17.10;99.90;;;;;;6340912;22;20173;-72
2022/10/17 20:14:39;;;;;;;1.95;1.40;;;17.00;99.90;;;;;;6340089;22;20665;-72
2022/10/17 20:17:05;;;;;;;4.63;1.17;;;17.10;99.90;;;;;;6340244;22;20173;-71
2022/10/17 20:19:32;;;;;;;1.73;1.20;;;17.10;99.90;;;;;;6340031;22;20180;-71
2022/10/17 20:21:59;;;;;;;2.35;1.40;;;17.10;99.90;;;;;;6339698;22;20180;-71
2022/10/17 20:24:26;;;;;;;1.63;1.30;;;17.10;99.90;;;;;;6339450;22;20213;-71
2022/10/17 20:26:54;;;;;;;1.85;1.10;;;17.20;99.90;;;;;;6339513;22;20173;-71
2022/10/17 20:29:22;;;;;;;1.95;1.30;;;17.10;99.90;;;;;;6340262;22;20177;-71
2022/10/17 20:31:49;;;;;;;2.40;1.95;;;17.20;99.90;;;;;;6340424;22;20181;-71
2022/10/17 20:34:18;;;;;;;2.45;1.73;;;17.20;99.90;;;;;;6340038;22;20193;-72
2022/10/17 20:36:44;;;;;;;2.92;1.35;;;17.20;99.90;;;;;;6340359;22;20173;-71
2022/10/17 20:39:12;;;;;;;1.70;1.27;;;17.20;99.90;;;;;;6340277;22;20610;-71
2022/10/17 20:41:40;;;;;;;1.77;1.58;;;17.10;99.90;;;;;;6340187;22;20172;-71
2022/10/17 20:44:08;;;;;;;2.10;1.25;;;17.10;99.90;;;;;;6339336;22;20205;-72
2022/10/17 20:46:36;;;;;;;4.60;1.25;;;17.10;99.90;;;;;;6339530;22;20173;-71
2022/10/17 20:49:03;;;;;;;1.75;1.35;;;17.20;99.90;;;;;;6339777;22;20181;-71
2022/10/17 20:51:30;;;;;;;1.80;1.42;;;17.30;99.90;;;;;;6339941;22;20180;-71
2022/10/17 20:53:57;;;;;;;2.05;1.23;;;17.50;99.90;;;;;;6340005;22;20505;-71
2022/10/17 20:56:27;;;;;;;3.53;1.83;;;17.50;99.90;;;;;;6340335;22;20173;-72
2022/10/17 20:58:55;;;;;;;1.90;1.48;;;17.40;99.90;;;;;;6340209;22;20179;-71
2022/10/17 21:01:24;;;;;;;2.25;1.20;;;17.30;99.90;;;;;;6339724;22;20184;-71
2022/10/17 21:03:51;;;;;;;1.80;1.35;;;17.20;99.90;;;;;;6339946;22;20211;-71
2022/10/17 21:06:19;;;;;;;4.05;1.30;;;17.20;99.90;;;;;;6339983;22;20193;-71
2022/10/17 21:08:47;;;;;;;1.95;1.40;;;17.10;99.90;;;;;;6339767;22;20188;-70
2022/10/17 21:11:15;;;;;;;2.80;1.50;;;17.20;99.90;;;;;;6339866;22;20264;-71
2022/10/17 21:13:43;;;;;;;3.63;1.40;;;17.10;99.90;;;;;;6339419;22;20187;-72
2022/10/17 21:16:11;;;;;;;2.13;1.48;;;17.10;99.90;;;;;;6339477;22;20200;-71
2022/10/17 21:18:40;;;;;;;1.65;1.45;;;17.10;99.90;;;;;;6339587;22;20181;-71
2022/10/17 21:21:12;;;;;;;1.85;1.50;;;17.10;99.90;;;;;;6339867;22;20178;-71
2022/10/17 21:23:40;;;;;;;3.53;1.40;;;17.10;99.90;;;;;;6340043;22;20197;-71